createdAt,value
2018-02-11T00:01:04.957Z,98151.96
2018-02-11T00:03:32.919Z,98147.23
2018-02-11T00:06:00.335Z,98149.24
2018-02-11T00:08:27.794Z,98144.76
2018-02-11T00:10:55.565Z,98142.13
2018-02-11T00:13:23.024Z,98135.81
2018-02-11T00:15:50.475Z,98136.41
2018-02-11T00:18:18.240Z,98131.41
2018-02-11T00:20:45.688Z,98133.36
2018-02-11T00:23:13.152Z,98131.56
2018-02-11T00:25:40.944Z,98130.11
2018-02-11T00:28:08.392Z,98127.01
2018-02-11T00:30:35.837Z,98123.75
2018-02-11T00:33:03.636Z,98128.84
2018-02-11T00:35:31.083Z,98125.05
2018-02-11T00:38:04.688Z,98122.98
2018-02-11T00:40:32.153Z,98111.91
2018-02-11T00:42:59.600Z,98110.37
2018-02-11T00:45:27.272Z,98110.84
2018-02-11T00:47:54.720Z,98111.37
2018-02-11T00:50:22.884Z,98107.36
2018-02-11T00:52:50.694Z,98115.80
2018-02-11T00:55:18.144Z,98108.22
2018-02-11T00:57:45.601Z,98106.52
2018-02-11T01:00:13.556Z,98101.23
2018-02-11T01:02:41.008Z,98099.03
2018-02-11T01:05:08.459Z,98095.37
2018-02-11T01:07:36.056Z,98098.62
2018-02-11T01:10:03.512Z,98093.22
2018-02-11T01:12:30.956Z,98092.68
2018-02-11T01:14:59.052Z,98092.11
2018-02-11T01:17:26.504Z,98084.17
2018-02-11T01:19:53.958Z,98080.76
2018-02-11T01:22:21.738Z,98082.41
2018-02-11T01:24:49.186Z,98077.88
2018-02-11T01:27:16.634Z,98078.95
2018-02-11T01:29:44.480Z,98073.37
2018-02-11T01:32:11.933Z,98070.34
2018-02-11T01:34:39.387Z,98063.75
2018-02-11T01:37:07.115Z,98064.41
2018-02-11T01:39:34.576Z,98057.24
2018-02-11T01:42:02.028Z,98062.36
2018-02-11T01:44:29.797Z,98058.41
2018-02-11T01:46:57.250Z,98051.95
2018-02-11T01:49:24.695Z,98050.02
2018-02-11T01:51:52.534Z,98047.16
2018-02-11T01:54:20.009Z,98043.61
2018-02-11T01:56:47.477Z,98037.64
2018-02-11T01:59:15.433Z,98040.53
2018-02-11T02:01:42.884Z,98036.55
2018-02-11T02:04:10.329Z,98033.14
2018-02-11T02:06:38.173Z,98031.66
2018-02-11T02:09:05.631Z,98028.05
2018-02-11T02:11:33.093Z,98020.84
2018-02-11T02:14:01.153Z,98016.91
2018-02-11T02:16:28.612Z,98011.70
2018-02-11T02:18:56.064Z,98011.28
2018-02-11T02:21:24.152Z,98016.66
2018-02-11T02:23:51.601Z,98010.69
2018-02-11T02:26:19.048Z,98014.14
2018-02-11T02:28:46.845Z,98010.20
2018-02-11T02:31:14.302Z,98012.53
2018-02-11T02:33:41.748Z,98002.42
2018-02-11T02:36:09.520Z,98001.34
2018-02-11T02:38:36.967Z,98002.83
2018-02-11T02:41:04.419Z,98002.83
2018-02-11T02:43:32.217Z,97999.17
2018-02-11T02:45:59.661Z,97994.09
2018-02-11T02:48:27.118Z,97992.29
2018-02-11T02:50:54.901Z,97991.73
2018-02-11T02:53:23.053Z,97987.96
2018-02-11T02:55:50.505Z,97989.58
2018-02-11T02:58:18.329Z,97986.56
2018-02-11T03:00:45.787Z,97981.11
2018-02-11T03:03:13.250Z,97973.70
2018-02-11T03:05:41.218Z,97985.23
2018-02-11T03:08:08.669Z,97973.73
2018-02-11T03:10:36.123Z,97978.41
2018-02-11T03:13:04.192Z,97971.83
2018-02-11T03:15:31.657Z,97970.80
2018-02-11T03:17:59.112Z,97974.25
2018-02-11T03:20:26.885Z,97969.30
2018-02-11T03:22:54.345Z,97966.92
2018-02-11T03:25:21.796Z,97959.16
2018-02-11T03:27:49.564Z,97955.77
2018-02-11T03:30:17.018Z,97956.33
2018-02-11T03:32:44.473Z,97959.67
2018-02-11T03:35:12.250Z,97953.53
2018-02-11T03:37:39.694Z,97961.59
2018-02-11T03:40:07.151Z,97963.30
2018-02-11T03:42:34.924Z,97963.89
2018-02-11T03:45:02.378Z,97958.17
2018-02-11T03:47:29.837Z,97954.94
2018-02-11T03:49:57.621Z,97953.34
2018-02-11T03:52:25.066Z,97950.33
2018-02-11T03:54:52.932Z,97953.13
2018-02-11T03:57:20.668Z,97947.16
2018-02-11T03:59:48.146Z,97945.73
2018-02-11T04:02:15.591Z,97942.88
2018-02-11T04:04:43.325Z,97941.19
2018-02-11T04:07:10.779Z,97938.34
2018-02-11T04:09:38.244Z,97941.86
2018-02-11T04:12:05.993Z,97933.68
2018-02-11T04:14:33.443Z,97935.33
2018-02-11T04:17:00.892Z,97934.66
2018-02-11T04:19:28.699Z,97927.63
2018-02-11T04:21:56.157Z,97929.51
2018-02-11T04:24:23.609Z,97920.20
2018-02-11T04:26:51.365Z,97922.36
2018-02-11T04:29:18.807Z,97917.59
2018-02-11T04:31:46.282Z,97919.02
2018-02-11T04:34:14.106Z,97911.48
2018-02-11T04:36:41.554Z,97912.42
2018-02-11T04:39:08.999Z,97913.58
2018-02-11T04:41:37.050Z,97903.61
2018-02-11T04:44:04.504Z,97906.58
2018-02-11T04:46:31.963Z,97900.78
2018-02-11T04:49:00.051Z,97896.53
2018-02-11T04:51:27.509Z,97894.84
2018-02-11T04:53:54.956Z,97894.53
2018-02-11T04:56:22.739Z,97898.28
2018-02-11T04:58:50.224Z,97896.04
2018-02-11T05:01:17.672Z,97892.83
2018-02-11T05:03:45.435Z,97886.34
2018-02-11T05:06:13.093Z,97885.12
2018-02-11T05:08:40.526Z,97882.69
2018-02-11T05:11:08.422Z,97873.20
2018-02-11T05:13:35.877Z,97870.07
2018-02-11T05:16:03.321Z,97872.85
2018-02-11T05:18:31.095Z,97863.80
2018-02-11T05:20:58.540Z,97869.39
2018-02-11T05:23:25.996Z,97882.65
2018-02-11T05:25:53.847Z,97883.31
2018-02-11T05:28:21.257Z,97879.96
2018-02-11T05:30:48.724Z,97871.25
2018-02-11T05:33:16.479Z,97876.05
2018-02-11T05:35:43.933Z,97874.09
2018-02-11T05:38:11.380Z,97875.47
2018-02-11T05:40:39.166Z,97880.57
2018-02-11T05:43:06.628Z,97875.20
2018-02-11T05:45:34.097Z,97877.03
2018-02-11T05:48:02.162Z,97875.28
2018-02-11T05:50:29.612Z,97874.55
2018-02-11T05:52:57.057Z,97874.94
2018-02-11T05:55:24.845Z,97869.66
2018-02-11T05:57:52.300Z,97866.95
2018-02-11T06:00:19.756Z,97871.26
2018-02-11T06:02:47.524Z,97869.66
2018-02-11T06:05:14.985Z,97870.52
2018-02-11T06:07:42.447Z,97870.03
2018-02-11T06:10:10.218Z,97877.79
2018-02-11T06:12:37.681Z,97869.49
2018-02-11T06:15:05.130Z,97876.77
2018-02-11T06:17:32.896Z,97872.25
2018-02-11T06:20:00.344Z,97870.83
2018-02-11T06:22:27.801Z,97875.06
2018-02-11T06:24:55.585Z,97871.69
2018-02-11T06:27:23.033Z,97879.27
2018-02-11T06:29:50.484Z,97873.44
2018-02-11T06:32:18.292Z,97880.88
2018-02-11T06:34:45.774Z,97881.17
2018-02-11T06:37:13.228Z,97878.89
2018-02-11T06:39:40.977Z,97877.69
2018-02-11T06:42:08.430Z,97873.44
2018-02-11T06:44:35.892Z,97871.95
2018-02-11T06:47:03.648Z,97877.37
2018-02-11T06:49:31.092Z,97877.33
2018-02-11T06:51:58.546Z,97875.13
2018-02-11T06:54:26.635Z,97875.97
2018-02-11T06:56:54.081Z,97871.34
2018-02-11T06:59:24.404Z,97870.96
2018-02-11T07:01:52.104Z,97873.90
2018-02-11T07:04:19.565Z,97875.34
2018-02-11T07:06:48.037Z,97868.52
2018-02-11T07:09:16.117Z,97875.48
2018-02-11T07:11:43.569Z,97875.22
2018-02-11T07:14:11.016Z,97873.84
2018-02-11T07:16:39.065Z,97871.69
2018-02-11T07:19:06.518Z,97866.69
2018-02-11T07:21:33.970Z,97868.63
2018-02-11T07:24:01.701Z,97867.22
2018-02-11T07:26:29.162Z,97861.73
2018-02-11T07:28:56.620Z,97857.52
2018-02-11T07:31:24.382Z,97858.16
2018-02-11T07:33:51.833Z,97852.98
2018-02-11T07:36:19.305Z,97855.30
2018-02-11T07:38:47.065Z,97857.23
2018-02-11T07:41:14.521Z,97854.65
2018-02-11T07:43:41.976Z,97850.81
2018-02-11T07:46:09.751Z,97848.95
2018-02-11T07:48:37.209Z,97847.05
2018-02-11T07:51:04.672Z,97845.41
2018-02-11T07:53:32.457Z,97839.31
2018-02-11T07:55:59.913Z,97834.61
2018-02-11T07:58:27.380Z,97826.48
2018-02-11T08:00:55.764Z,97821.12
2018-02-11T08:03:23.219Z,97817.25
2018-02-11T08:05:50.693Z,97813.47
2018-02-11T08:08:18.424Z,97813.00
2018-02-11T08:10:45.874Z,97809.61
2018-02-11T08:13:13.329Z,97809.98
2018-02-11T08:15:41.121Z,97808.52
2018-02-11T08:18:08.583Z,97802.72
2018-02-11T08:20:36.049Z,97800.41
2018-02-11T08:23:03.812Z,97794.78
2018-02-11T08:25:31.269Z,97795.70
2018-02-11T08:27:58.737Z,97792.78
2018-02-11T08:30:26.831Z,97791.11
2018-02-11T08:32:54.271Z,97795.41
2018-02-11T08:35:21.732Z,97788.94
2018-02-11T08:37:49.378Z,97788.53
2018-02-11T08:40:16.838Z,97788.41
2018-02-11T08:42:44.299Z,97781.70
2018-02-11T08:45:12.186Z,97778.59
2018-02-11T08:47:39.703Z,97777.15
2018-02-11T08:50:07.125Z,97766.54
2018-02-11T08:52:35.176Z,97771.33
2018-02-11T08:55:02.639Z,97766.09
2018-02-11T08:57:30.102Z,97762.80
2018-02-11T08:59:57.864Z,97758.40
2018-02-11T09:02:26.022Z,97755.21
2018-02-11T09:04:53.490Z,97751.89
2018-02-11T09:07:21.462Z,97741.80
2018-02-11T09:09:48.934Z,97742.89
2018-02-11T09:12:16.394Z,97737.55
2018-02-11T09:14:44.159Z,97734.77
2018-02-11T09:17:11.612Z,97734.34
2018-02-11T09:19:39.056Z,97733.25
2018-02-11T09:22:06.837Z,97731.27
2018-02-11T09:24:34.291Z,97731.26
2018-02-11T09:27:01.753Z,97732.61
2018-02-11T09:29:29.525Z,97726.95
2018-02-11T09:31:56.984Z,97723.16
2018-02-11T09:34:24.449Z,97717.67
2018-02-11T09:36:52.216Z,97718.58
2018-02-11T09:39:19.678Z,97713.19
2018-02-11T09:41:47.141Z,97711.84
2018-02-11T09:44:14.911Z,97711.95
2018-02-11T09:46:42.364Z,97702.70
2018-02-11T09:49:09.827Z,97705.73
2018-02-11T09:51:37.498Z,97696.05
2018-02-11T09:54:04.958Z,97693.12
2018-02-11T09:56:32.416Z,97691.69
2018-02-11T09:59:00.063Z,97692.17
2018-02-11T10:01:27.519Z,97687.94
2018-02-11T10:03:56.689Z,97682.52
2018-02-11T10:06:24.512Z,97680.29
2018-02-11T10:08:51.970Z,97672.61
2018-02-11T10:11:19.421Z,97670.08
2018-02-11T10:13:47.195Z,97666.66
2018-02-11T10:16:14.648Z,97664.28
2018-02-11T10:18:42.116Z,97662.28
2018-02-11T10:21:09.758Z,97660.10
2018-02-11T10:23:37.214Z,97658.31
2018-02-11T10:26:04.663Z,97661.37
2018-02-11T10:28:32.572Z,97646.70
2018-02-11T10:31:00.070Z,97640.89
2018-02-11T10:33:27.529Z,97641.23
2018-02-11T10:35:55.388Z,97640.00
2018-02-11T10:38:22.861Z,97637.67
2018-02-11T10:40:50.321Z,97634.88
2018-02-11T10:43:18.253Z,97630.39
2018-02-11T10:45:45.718Z,97626.77
2018-02-11T10:48:13.184Z,97623.72
2018-02-11T10:50:40.945Z,97627.06
2018-02-11T10:53:08.413Z,97618.11
2018-02-11T10:55:35.869Z,97611.75
2018-02-11T10:58:03.685Z,97609.31
2018-02-11T11:00:31.142Z,97593.95
2018-02-11T11:02:58.593Z,97598.97
2018-02-11T11:05:27.202Z,97594.59
2018-02-11T11:07:54.647Z,97578.63
2018-02-11T11:10:22.104Z,97585.53
2018-02-11T11:12:50.248Z,97578.52
2018-02-11T11:22:01.366Z,97571.19
2018-02-11T11:24:28.822Z,97567.98
2018-02-11T11:26:56.273Z,97560.00
2018-02-11T11:29:24.354Z,97559.06
2018-02-11T11:31:51.817Z,97554.47
2018-02-11T11:34:19.326Z,97549.69
2018-02-11T11:36:47.065Z,97544.45
2018-02-11T11:39:14.515Z,97538.29
2018-02-11T11:41:41.963Z,97524.14
2018-02-11T11:44:09.721Z,97522.66
2018-02-11T11:46:37.180Z,97516.70
2018-02-11T11:49:04.644Z,97509.94
2018-02-11T11:51:32.709Z,97513.22
2018-02-11T11:54:00.161Z,97498.77
2018-02-11T11:56:27.643Z,97498.02
2018-02-11T11:58:55.404Z,97493.43
2018-02-11T12:01:22.862Z,97482.16
2018-02-11T12:03:50.323Z,97478.35
2018-02-11T12:06:18.644Z,97475.70
2018-02-11T12:08:46.094Z,97466.97
2018-02-11T12:11:13.548Z,97473.19
2018-02-11T12:13:41.367Z,97474.50
2018-02-11T12:16:08.824Z,97465.38
2018-02-11T12:18:36.265Z,97462.98
2018-02-11T12:21:04.073Z,97462.59
2018-02-11T12:23:31.526Z,97466.53
2018-02-11T12:25:58.974Z,97460.14
2018-02-11T12:28:26.765Z,97451.42
2018-02-11T12:30:54.216Z,97452.42
2018-02-11T12:33:21.673Z,97443.38
2018-02-11T12:35:49.458Z,97445.70
2018-02-11T12:38:16.925Z,97437.58
2018-02-11T12:40:44.373Z,97436.28
2018-02-11T12:43:12.128Z,97428.92
2018-02-11T12:45:39.589Z,97431.83
2018-02-11T12:48:07.051Z,97436.98
2018-02-11T12:50:34.825Z,97434.95
2018-02-11T12:53:03.173Z,97436.80
2018-02-11T12:55:30.629Z,97426.98
2018-02-11T12:57:58.437Z,97421.27
2018-02-11T13:00:25.884Z,97418.46
2018-02-11T13:09:37.474Z,97404.58
2018-02-11T13:12:04.942Z,97402.13
2018-02-11T13:14:32.397Z,97405.05
2018-02-11T13:17:00.367Z,97391.11
2018-02-11T13:19:27.820Z,97382.78
2018-02-11T13:21:55.267Z,97379.52
2018-02-11T13:24:23.019Z,97381.83
2018-02-11T13:26:50.486Z,97372.91
2018-02-11T13:29:17.948Z,97363.16
2018-02-11T13:31:45.703Z,97361.30
2018-02-11T13:34:13.172Z,97370.14
2018-02-11T13:36:40.640Z,97367.34
2018-02-11T13:39:08.396Z,97367.48
2018-02-11T13:41:35.857Z,97362.50
2018-02-11T13:44:03.320Z,97357.03
2018-02-11T13:46:31.371Z,97355.77
2018-02-11T13:48:58.824Z,97350.75
2018-02-11T13:51:26.276Z,97353.06
2018-02-11T13:53:54.057Z,97351.17
2018-02-11T13:56:21.516Z,97345.07
2018-02-11T13:58:48.975Z,97345.80
2018-02-11T14:01:16.919Z,97352.53
2018-02-11T14:03:44.373Z,97340.97
2018-02-11T14:06:11.828Z,97347.96
2018-02-11T14:08:39.736Z,97346.68
2018-02-11T14:11:07.590Z,97345.01
2018-02-11T14:13:35.039Z,97344.48
2018-02-11T14:16:02.980Z,97343.72
2018-02-11T14:18:30.437Z,97342.23
2018-02-11T14:20:57.924Z,97333.53
2018-02-11T14:23:25.732Z,97330.24
2018-02-11T14:25:53.179Z,97331.97
2018-02-11T14:28:20.632Z,97329.95
2018-02-11T14:30:48.422Z,97327.13
2018-02-11T14:33:15.877Z,97326.61
2018-02-11T14:35:43.339Z,97321.85
2018-02-11T14:38:11.125Z,97321.09
2018-02-11T14:40:38.574Z,97323.41
2018-02-11T14:43:06.027Z,97322.39
2018-02-11T14:45:33.805Z,97325.92
2018-02-11T14:48:01.256Z,97319.41
2018-02-11T14:50:28.715Z,97321.91
2018-02-11T14:52:56.491Z,97322.73
2018-02-11T14:55:23.964Z,97323.50
2018-02-11T14:57:51.410Z,97321.44
2018-02-11T15:00:19.183Z,97314.15
2018-02-11T15:02:46.630Z,97322.88
2018-02-11T15:05:14.084Z,97320.55
2018-02-11T15:07:41.947Z,97315.33
2018-02-11T15:10:09.398Z,97314.98
2018-02-11T15:12:38.732Z,97317.49
2018-02-11T15:15:06.388Z,97312.72
2018-02-11T15:17:33.880Z,97313.59
2018-02-11T15:20:01.617Z,97315.95
2018-02-11T15:22:29.337Z,97319.66
2018-02-11T15:24:56.789Z,97316.73
2018-02-11T15:27:24.255Z,97321.65
2018-02-11T15:29:52.069Z,97310.05
2018-02-11T15:32:19.514Z,97323.72
2018-02-11T15:34:47.316Z,97305.83
2018-02-11T15:37:15.061Z,97310.73
2018-02-11T15:39:42.557Z,97308.36
2018-02-11T15:42:10.004Z,97308.94
2018-02-11T15:44:37.764Z,97307.09
2018-02-11T15:47:05.279Z,97298.70
2018-02-11T15:49:32.723Z,97303.53
2018-02-11T15:52:00.484Z,97305.37
2018-02-11T15:54:27.946Z,97298.90
2018-02-11T15:56:55.408Z,97297.22
2018-02-11T15:59:23.440Z,97306.66
2018-02-11T16:01:50.894Z,97305.26
2018-02-11T16:04:18.353Z,97302.58
2018-02-11T16:06:46.238Z,97300.69
2018-02-11T16:09:13.728Z,97308.42
2018-02-11T16:11:41.354Z,97303.56
2018-02-11T16:14:10.373Z,97308.16
2018-02-11T16:16:37.834Z,97311.76
2018-02-11T16:19:05.308Z,97305.48
2018-02-11T16:21:33.328Z,97310.45
2018-02-11T16:24:00.836Z,97308.19
2018-02-11T16:26:28.519Z,97305.77
2018-02-11T16:28:56.683Z,97301.21
2018-02-11T16:31:24.128Z,97301.90
2018-02-11T16:33:51.606Z,97299.39
2018-02-11T16:36:19.641Z,97297.43
2018-02-11T16:38:47.691Z,97299.25
2018-02-11T16:41:15.701Z,97300.28
2018-02-11T16:43:43.543Z,97306.09
2018-02-11T16:46:10.989Z,97301.48
2018-02-11T16:48:38.491Z,97306.22
2018-02-11T16:51:06.232Z,97309.48
2018-02-11T16:53:33.678Z,97315.44
2018-02-11T16:56:01.133Z,97311.80
2018-02-11T16:58:29.212Z,97318.36
2018-02-11T17:00:56.676Z,97307.40
2018-02-11T17:03:24.198Z,97309.13
2018-02-11T17:05:51.941Z,97314.08
2018-02-11T17:08:19.419Z,97303.34
2018-02-11T17:10:46.868Z,97309.20
2018-02-11T17:13:14.542Z,97309.77
2018-02-11T17:15:42.750Z,97310.55
2018-02-11T17:18:10.198Z,97306.70
2018-02-11T17:20:37.909Z,97306.55
2018-02-11T17:23:05.412Z,97309.49
2018-02-11T17:25:33.128Z,97302.75
2018-02-11T17:28:00.949Z,97313.07
2018-02-11T17:30:28.392Z,97314.27
2018-02-11T17:32:55.865Z,97319.87
2018-02-11T17:35:23.907Z,97312.19
2018-02-11T17:37:51.355Z,97311.77
2018-02-11T17:40:18.801Z,97315.23
2018-02-11T17:42:46.577Z,97308.23
2018-02-11T17:45:14.040Z,97300.11
2018-02-11T17:47:41.485Z,97303.50
2018-02-11T17:50:09.224Z,97308.36
2018-02-11T17:52:36.975Z,97307.25
2018-02-11T17:55:04.435Z,97307.95
2018-02-11T17:57:32.281Z,97316.59
2018-02-11T17:59:59.758Z,97317.00
2018-02-11T18:02:27.204Z,97322.67
2018-02-11T18:04:54.959Z,97315.74
2018-02-11T18:07:22.418Z,97324.86
2018-02-11T18:09:49.917Z,97321.52
2018-02-11T18:12:17.953Z,97315.72
2018-02-11T18:14:45.408Z,97322.17
2018-02-11T18:17:13.348Z,97316.94
2018-02-11T18:19:41.245Z,97323.04
2018-02-11T18:22:08.692Z,97320.17
2018-02-11T18:24:36.138Z,97326.73
2018-02-11T18:27:03.939Z,97327.02
2018-02-11T18:29:31.392Z,97328.45
2018-02-11T18:31:58.841Z,97329.28
2018-02-11T18:34:26.618Z,97337.83
2018-02-11T18:36:54.066Z,97339.97
2018-02-11T18:39:21.519Z,97339.42
2018-02-11T18:41:49.325Z,97339.59
2018-02-11T18:44:16.770Z,97339.80
2018-02-11T18:46:44.233Z,97343.03
2018-02-11T18:49:12.016Z,97341.43
2018-02-11T18:51:39.468Z,97354.81
2018-02-11T18:54:06.909Z,97347.42
2018-02-11T18:56:34.676Z,97360.76
2018-02-11T18:59:02.144Z,97351.27
2018-02-11T19:01:29.604Z,97363.81
2018-02-11T19:03:57.682Z,97353.72
2018-02-11T19:06:25.158Z,97358.28
2018-02-11T19:08:52.760Z,97348.69
2018-02-11T19:11:20.428Z,97359.63
2018-02-11T19:13:47.882Z,97354.98
2018-02-11T19:16:15.338Z,97357.69
2018-02-11T19:18:43.964Z,97360.59
2018-02-11T19:21:11.408Z,97361.46
2018-02-11T19:23:39.404Z,97357.61
2018-02-11T19:26:07.841Z,97352.34
2018-02-11T19:28:35.294Z,97352.16
2018-02-11T19:31:02.738Z,97352.38
2018-02-11T19:33:30.567Z,97360.73
2018-02-11T19:35:58.644Z,97359.58
2018-02-11T19:38:26.092Z,97361.80
2018-02-11T19:40:53.869Z,97358.05
2018-02-11T19:43:21.317Z,97370.11
2018-02-11T19:45:49.161Z,97365.75
2018-02-11T19:48:17.175Z,97356.52
2018-02-11T19:50:44.646Z,97355.39
2018-02-11T19:53:12.101Z,97353.37
2018-02-11T19:55:40.172Z,97356.70
2018-02-11T19:58:07.638Z,97363.77
2018-02-11T20:00:35.102Z,97366.63
2018-02-11T20:03:02.856Z,97371.14
2018-02-11T20:05:30.305Z,97371.75
2018-02-11T20:07:57.769Z,97378.86
2018-02-11T20:10:25.851Z,97373.48
2018-02-11T20:12:53.394Z,97377.38
2018-02-11T20:15:20.852Z,97378.59
2018-02-11T20:17:48.573Z,97381.56
2018-02-11T20:20:18.849Z,97377.20
2018-02-11T20:22:46.310Z,97379.31
2018-02-11T20:25:13.985Z,97382.72
2018-02-11T20:27:41.432Z,97381.35
2018-02-11T20:30:08.903Z,97386.87
2018-02-11T20:32:36.988Z,97381.73
2018-02-11T20:35:04.452Z,97387.16
2018-02-11T20:37:31.901Z,97379.14
2018-02-11T20:39:59.620Z,97383.84
2018-02-11T20:42:27.085Z,97392.81
2018-02-11T20:44:56.092Z,97390.10
2018-02-11T20:47:23.930Z,97393.97
2018-02-11T20:49:51.389Z,97383.78
2018-02-11T20:52:18.865Z,97394.45
2018-02-11T20:54:47.672Z,97399.59
2018-02-11T20:57:15.278Z,97394.36
2018-02-11T20:59:43.409Z,97394.27
2018-02-11T21:02:11.039Z,97402.56
2018-02-11T21:04:38.485Z,97400.36
2018-02-11T21:07:07.255Z,97411.68
2018-02-11T21:09:35.026Z,97417.02
2018-02-11T21:12:02.477Z,97420.39
2018-02-11T21:14:29.934Z,97421.16
2018-02-11T21:16:58.622Z,97415.44
2018-02-11T21:19:26.572Z,97434.59
2018-02-11T21:21:56.079Z,97430.80
2018-02-11T21:24:24.091Z,97439.05
2018-02-11T21:26:51.549Z,97433.82
2018-02-11T21:29:19.005Z,97434.97
2018-02-11T21:31:46.793Z,97443.88
2018-02-11T21:34:14.253Z,97438.25
2018-02-11T21:36:41.712Z,97436.59
2018-02-11T21:39:09.469Z,97446.98
2018-02-11T21:41:36.957Z,97458.91
2018-02-11T21:44:04.433Z,97461.77
2018-02-11T21:46:32.199Z,97462.45
2018-02-11T21:48:59.665Z,97472.66
2018-02-11T21:51:27.130Z,97472.25
2018-02-11T21:53:54.857Z,97476.41
2018-02-11T21:56:22.344Z,97478.84
2018-02-11T21:58:49.824Z,97475.04
2018-02-11T22:01:17.524Z,97479.66
2018-02-11T22:03:45.016Z,97484.84
2018-02-11T22:06:12.467Z,97485.30
2018-02-11T22:08:40.570Z,97486.37
2018-02-11T22:11:08.048Z,97486.94
2018-02-11T22:13:35.491Z,97476.33
2018-02-11T22:16:03.521Z,97478.14
2018-02-11T22:18:31.222Z,97485.20
2018-02-11T22:20:58.697Z,97484.88
2018-02-11T22:23:27.434Z,97484.94
2018-02-11T22:25:54.884Z,97495.22
2018-02-11T22:28:22.364Z,97498.37
2018-02-11T22:30:50.127Z,97494.19
2018-02-11T22:33:17.590Z,97497.17
2018-02-11T22:35:45.045Z,97500.61
2018-02-11T22:38:12.797Z,97498.77
2018-02-11T22:40:40.250Z,97503.25
2018-02-11T22:43:07.713Z,97509.98
2018-02-11T22:45:35.805Z,97508.01
2018-02-11T22:48:03.268Z,97500.69
2018-02-11T22:50:30.722Z,97499.73
2018-02-11T22:52:58.519Z,97500.47
2018-02-11T22:55:25.987Z,97501.89
2018-02-11T22:57:53.441Z,97503.39
2018-02-11T23:00:21.482Z,97502.56
2018-02-11T23:02:48.932Z,97503.69
2018-02-11T23:05:16.391Z,97508.18
2018-02-11T23:07:44.181Z,97504.49
2018-02-11T23:10:11.649Z,97508.02
2018-02-11T23:12:39.108Z,97507.27
2018-02-11T23:15:06.861Z,97517.21
2018-02-11T23:17:34.315Z,97522.85
2018-02-11T23:20:01.776Z,97529.38
2018-02-11T23:22:29.616Z,97531.25
2018-02-11T23:24:58.297Z,97530.09
2018-02-11T23:27:25.753Z,97538.03
2018-02-11T23:29:53.763Z,97536.86
2018-02-11T23:32:21.220Z,97542.16
2018-02-11T23:34:48.713Z,97541.19
2018-02-11T23:37:16.440Z,97548.39
2018-02-11T23:39:43.889Z,97551.28
2018-02-11T23:42:11.349Z,97550.98
2018-02-11T23:44:39.062Z,97563.99
2018-02-11T23:47:06.520Z,97564.09
2018-02-11T23:49:33.980Z,97561.22
2018-02-11T23:52:01.782Z,97564.97
2018-02-11T23:54:29.248Z,97570.47
2018-02-11T23:56:56.696Z,97572.47
2018-02-11T23:59:24.517Z,97573.23
